sensor_id;sensor_type;location;lat;lon;timestamp;temperature;humidity
9965;DHT22;5023;53.554;9.964;2023-02-28T00:04:45;4.70;99.90
9965;DHT22;5023;53.554;9.964;2023-02-28T00:09:54;4.60;99.90
9965;DHT22;5023;53.554;9.964;2023-02-28T00:14:57;4.60;99.90
9965;DHT22;5023;53.554;9.964;2023-02-28T00:19:59;4.60;99.90
9965;DHT22;5023;53.554;9.964;2023-02-28T00:25:16;4.50;99.90
9965;DHT22;5023;53.554;9.964;2023-02-28T00:30:20;4.40;99.90
9965;DHT22;5023;53.554;9.964;2023-02-28T00:35:24;4.30;99.90
9965;DHT22;5023;53.554;9.964;2023-02-28T00:40:28;4.40;99.90
9965;DHT22;5023;53.554;9.964;2023-02-28T00:45:30;4.40;99.90
9965;DHT22;5023;53.554;9.964;2023-02-28T00:50:32;4.40;99.90
9965;DHT22;5023;53.554;9.964;2023-02-28T00:55:38;4.40;99.90
9965;DHT22;5023;53.554;9.964;2023-02-28T01:00:40;4.40;99.90
9965;DHT22;5023;53.554;9.964;2023-02-28T01:05:42;4.40;99.90
9965;DHT22;5023;53.554;9.964;2023-02-28T01:10:45;4.40;99.90
9965;DHT22;5023;53.554;9.964;2023-02-28T01:15:50;4.20;99.90
9965;DHT22;5023;53.554;9.964;2023-02-28T01:20:52;4.20;99.90
9965;DHT22;5023;53.554;9.964;2023-02-28T01:25:56;4.30;99.90
9965;DHT22;5023;53.554;9.964;2023-02-28T01:30:59;4.40;99.90
9965;DHT22;5023;53.554;9.964;2023-02-28T01:36:03;4.30;99.90
9965;DHT22;5023;53.554;9.964;2023-02-28T01:41:15;4.30;99.90
9965;DHT22;5023;53.554;9.964;2023-02-28T01:46:17;4.30;99.90
9965;DHT22;5023;53.554;9.964;2023-02-28T01:51:22;4.40;99.90
9965;DHT22;5023;53.554;9.964;2023-02-28T01:56:30;4.40;99.90
9965;DHT22;5023;53.554;9.964;2023-02-28T02:01:34;4.40;99.90
9965;DHT22;5023;53.554;9.964;2023-02-28T02:06:39;4.20;99.90
9965;DHT22;5023;53.554;9.964;2023-02-28T02:11:45;4.20;99.90
9965;DHT22;5023;53.554;9.964;2023-02-28T02:16:59;4.20;99.90
9965;DHT22;5023;53.554;9.964;2023-02-28T02:22:34;4.20;99.90
9965;DHT22;5023;53.554;9.964;2023-02-28T02:28:04;4.20;99.90
9965;DHT22;5023;53.554;9.964;2023-02-28T02:33:23;4.10;99.90
9965;DHT22;5023;53.554;9.964;2023-02-28T02:38:33;4.00;99.90
9965;DHT22;5023;53.554;9.964;2023-02-28T02:43:40;4.00;99.90
9965;DHT22;5023;53.554;9.964;2023-02-28T02:48:44;3.80;99.90
9965;DHT22;5023;53.554;9.964;2023-02-28T02:53:51;3.80;99.90
9965;DHT22;5023;53.554;9.964;2023-02-28T02:58:59;3.90;99.90
9965;DHT22;5023;53.554;9.964;2023-02-28T03:04:06;3.80;99.90
9965;DHT22;5023;53.554;9.964;2023-02-28T03:09:10;3.80;99.90
9965;DHT22;5023;53.554;9.964;2023-02-28T03:14:22;3.70;99.90
9965;DHT22;5023;53.554;9.964;2023-02-28T03:19:37;3.60;99.90
9965;DHT22;5023;53.554;9.964;2023-02-28T03:24:49;3.50;99.90
9965;DHT22;5023;53.554;9.964;2023-02-28T03:29:58;3.40;99.90
9965;DHT22;5023;53.554;9.964;2023-02-28T03:35:09;3.30;99.90
9965;DHT22;5023;53.554;9.964;2023-02-28T03:40:17;3.30;99.90
9965;DHT22;5023;53.554;9.964;2023-02-28T03:45:23;3.30;99.90
9965;DHT22;5023;53.554;9.964;2023-02-28T03:50:37;3.30;99.90
9965;DHT22;5023;53.554;9.964;2023-02-28T03:55:44;3.30;99.90
9965;DHT22;5023;53.554;9.964;2023-02-28T04:00:48;3.20;99.90
9965;DHT22;5023;53.554;9.964;2023-02-28T04:05:53;3.10;99.90
9965;DHT22;5023;53.554;9.964;2023-02-28T04:11:02;3.10;99.90
9965;DHT22;5023;53.554;9.964;2023-02-28T04:16:10;3.10;99.90
9965;DHT22;5023;53.554;9.964;2023-02-28T04:21:13;3.00;99.90
9965;DHT22;5023;53.554;9.964;2023-02-28T04:26:16;3.00;99.90
9965;DHT22;5023;53.554;9.964;2023-02-28T04:31:18;2.90;99.90
9965;DHT22;5023;53.554;9.964;2023-02-28T04:36:21;2.90;99.90
9965;DHT22;5023;53.554;9.964;2023-02-28T04:41:26;2.60;99.90
9965;DHT22;5023;53.554;9.964;2023-02-28T04:46:29;2.60;99.90
9965;DHT22;5023;53.554;9.964;2023-02-28T04:51:31;2.70;99.90
9965;DHT22;5023;53.554;9.964;2023-02-28T04:56:37;2.60;99.90
9965;DHT22;5023;53.554;9.964;2023-02-28T05:01:39;2.70;99.90
9965;DHT22;5023;53.554;9.964;2023-02-28T05:06:41;2.60;99.90
9965;DHT22;5023;53.554;9.964;2023-02-28T05:11:46;2.40;99.90
9965;DHT22;5023;53.554;9.964;2023-02-28T05:16:48;2.30;99.90
9965;DHT22;5023;53.554;9.964;2023-02-28T05:21:52;2.20;99.90
9965;DHT22;5023;53.554;9.964;2023-02-28T05:26:57;2.40;99.90
9965;DHT22;5023;53.554;9.964;2023-02-28T05:31:59;2.40;99.90
9965;DHT22;5023;53.554;9.964;2023-02-28T05:37:02;2.40;99.90
9965;DHT22;5023;53.554;9.964;2023-02-28T05:42:05;2.40;99.90
9965;DHT22;5023;53.554;9.964;2023-02-28T05:47:07;2.50;99.90
9965;DHT22;5023;53.554;9.964;2023-02-28T05:52:09;2.40;99.90
9965;DHT22;5023;53.554;9.964;2023-02-28T05:57:17;2.40;99.90
9965;DHT22;5023;53.554;9.964;2023-02-28T06:02:19;2.30;99.90
9965;DHT22;5023;53.554;9.964;2023-02-28T06:07:22;2.20;99.90
9965;DHT22;5023;53.554;9.964;2023-02-28T06:12:27;2.20;99.90
9965;DHT22;5023;53.554;9.964;2023-02-28T06:17:29;2.10;99.90
9965;DHT22;5023;53.554;9.964;2023-02-28T06:22:31;2.20;99.90
9965;DHT22;5023;53.554;9.964;2023-02-28T06:27:34;2.20;99.90
9965;DHT22;5023;53.554;9.964;2023-02-28T06:32:36;2.40;99.90
9965;DHT22;5023;53.554;9.964;2023-02-28T06:37:39;2.30;99.90
9965;DHT22;5023;53.554;9.964;2023-02-28T06:42:42;2.30;99.90
9965;DHT22;5023;53.554;9.964;2023-02-28T06:47:44;2.30;99.90
9965;DHT22;5023;53.554;9.964;2023-02-28T06:52:52;2.20;99.90
9965;DHT22;5023;53.554;9.964;2023-02-28T06:57:57;2.20;99.90
9965;DHT22;5023;53.554;9.964;2023-02-28T07:02:59;2.20;99.90
9965;DHT22;5023;53.554;9.964;2023-02-28T07:08:03;2.20;99.90
9965;DHT22;5023;53.554;9.964;2023-02-28T07:13:08;2.20;99.90
9965;DHT22;5023;53.554;9.964;2023-02-28T07:18:11;2.10;99.90
9965;DHT22;5023;53.554;9.964;2023-02-28T07:23:13;2.20;99.90
9965;DHT22;5023;53.554;9.964;2023-02-28T07:28:16;2.30;99.90
9965;DHT22;5023;53.554;9.964;2023-02-28T07:33:18;2.30;99.90
9965;DHT22;5023;53.554;9.964;2023-02-28T07:38:20;2.30;99.90
9965;DHT22;5023;53.554;9.964;2023-02-28T07:43:24;2.40;99.90
9965;DHT22;5023;53.554;9.964;2023-02-28T07:48:26;2.50;99.90
9965;DHT22;5023;53.554;9.964;2023-02-28T07:53:28;2.60;99.90
9965;DHT22;5023;53.554;9.964;2023-02-28T07:58:32;2.70;99.90
9965;DHT22;5023;53.554;9.964;2023-02-28T08:03:36;2.80;99.90
9965;DHT22;5023;53.554;9.964;2023-02-28T08:08:39;2.90;99.90
9965;DHT22;5023;53.554;9.964;2023-02-28T08:13:45;3.00;99.90
9965;DHT22;5023;53.554;9.964;2023-02-28T08:18:47;3.10;99.90
9965;DHT22;5023;53.554;9.964;2023-02-28T08:23:52;3.30;99.90
9965;DHT22;5023;53.554;9.964;2023-02-28T08:28:59;3.50;99.90
9965;DHT22;5023;53.554;9.964;2023-02-28T08:34:04;3.60;99.90
9965;DHT22;5023;53.554;9.964;2023-02-28T08:39:06;3.70;99.90
9965;DHT22;5023;53.554;9.964;2023-02-28T08:44:12;3.70;99.90
9965;DHT22;5023;53.554;9.964;2023-02-28T08:49:14;3.90;99.90
9965;DHT22;5023;53.554;9.964;2023-02-28T08:54:16;4.00;99.90
9965;DHT22;5023;53.554;9.964;2023-02-28T08:59:21;4.20;99.90
9965;DHT22;5023;53.554;9.964;2023-02-28T09:04:23;4.30;99.90
9965;DHT22;5023;53.554;9.964;2023-02-28T09:09:25;4.70;99.90
9965;DHT22;5023;53.554;9.964;2023-02-28T09:14:28;5.30;99.90
9965;DHT22;5023;53.554;9.964;2023-02-28T09:19:30;5.50;99.90
9965;DHT22;5023;53.554;9.964;2023-02-28T09:24:37;5.70;99.90
9965;DHT22;5023;53.554;9.964;2023-02-28T09:29:40;5.80;99.90
9965;DHT22;5023;53.554;9.964;2023-02-28T09:34:42;5.70;99.90
9965;DHT22;5023;53.554;9.964;2023-02-28T09:39:44;5.50;99.90
9965;DHT22;5023;53.554;9.964;2023-02-28T09:44:48;5.60;99.90
9965;DHT22;5023;53.554;9.964;2023-02-28T09:49:52;5.50;97.90
9965;DHT22;5023;53.554;9.964;2023-02-28T09:54:54;5.40;92.90
9965;DHT22;5023;53.554;9.964;2023-02-28T10:00:12;5.40;91.80
9965;DHT22;5023;53.554;9.964;2023-02-28T10:05:19;5.50;91.70
9965;DHT22;5023;53.554;9.964;2023-02-28T10:10:26;5.60;90.70
9965;DHT22;5023;53.554;9.964;2023-02-28T10:15:32;5.70;91.50
9965;DHT22;5023;53.554;9.964;2023-02-28T10:20:38;5.70;91.60
9965;DHT22;5023;53.554;9.964;2023-02-28T10:25:44;5.80;91.90
9965;DHT22;5023;53.554;9.964;2023-02-28T10:30:53;5.80;91.30
9965;DHT22;5023;53.554;9.964;2023-02-28T10:35:55;5.90;92.80
9965;DHT22;5023;53.554;9.964;2023-02-28T10:41:05;5.90;93.50
9965;DHT22;5023;53.554;9.964;2023-02-28T10:46:13;5.90;93.70
9965;DHT22;5023;53.554;9.964;2023-02-28T10:51:35;6.10;95.10
9965;DHT22;5023;53.554;9.964;2023-02-28T10:56:37;6.20;94.40
9965;DHT22;5023;53.554;9.964;2023-02-28T11:01:42;6.10;92.70
9965;DHT22;5023;53.554;9.964;2023-02-28T11:06:46;6.20;92.80
9965;DHT22;5023;53.554;9.964;2023-02-28T11:11:49;6.10;91.50
9965;DHT22;5023;53.554;9.964;2023-02-28T11:16:53;6.30;94.10
9965;DHT22;5023;53.554;9.964;2023-02-28T11:22:00;6.50;90.90
9965;DHT22;5023;53.554;9.964;2023-02-28T11:27:02;6.50;87.50
9965;DHT22;5023;53.554;9.964;2023-02-28T11:32:13;6.40;86.20
9965;DHT22;5023;53.554;9.964;2023-02-28T11:37:18;6.40;86.20
9965;DHT22;5023;53.554;9.964;2023-02-28T11:42:45;6.50;85.10
9965;DHT22;5023;53.554;9.964;2023-02-28T11:48:15;6.60;81.10
9965;DHT22;5023;53.554;9.964;2023-02-28T11:53:23;6.70;80.70
9965;DHT22;5023;53.554;9.964;2023-02-28T11:58:36;6.90;80.20
9965;DHT22;5023;53.554;9.964;2023-02-28T12:03:55;7.10;79.50
9965;DHT22;5023;53.554;9.964;2023-02-28T12:09:15;7.20;78.80
9965;DHT22;5023;53.554;9.964;2023-02-28T12:14:48;7.60;78.60
9965;DHT22;5023;53.554;9.964;2023-02-28T12:19:58;7.70;77.10
9965;DHT22;5023;53.554;9.964;2023-02-28T12:25:24;7.70;76.10
9965;DHT22;5023;53.554;9.964;2023-02-28T12:30:33;7.80;74.80
9965;DHT22;5023;53.554;9.964;2023-02-28T12:35:49;8.00;75.60
9965;DHT22;5023;53.554;9.964;2023-02-28T12:40:56;8.00;73.50
9965;DHT22;5023;53.554;9.964;2023-02-28T12:46:07;7.90;73.90
9965;DHT22;5023;53.554;9.964;2023-02-28T12:51:13;8.10;72.60
9965;DHT22;5023;53.554;9.964;2023-02-28T12:56:21;8.20;73.10
9965;DHT22;5023;53.554;9.964;2023-02-28T13:01:42;8.30;72.10
9965;DHT22;5023;53.554;9.964;2023-02-28T13:07:05;8.40;72.50
9965;DHT22;5023;53.554;9.964;2023-02-28T13:12:13;8.60;74.40
9965;DHT22;5023;53.554;9.964;2023-02-28T13:17:19;9.00;74.80
9965;DHT22;5023;53.554;9.964;2023-02-28T13:22:37;9.10;70.90
9965;DHT22;5023;53.554;9.964;2023-02-28T13:27:42;8.80;67.50
9965;DHT22;5023;53.554;9.964;2023-02-28T13:32:45;8.70;68.30
9965;DHT22;5023;53.554;9.964;2023-02-28T13:37:48;8.90;68.30
9965;DHT22;5023;53.554;9.964;2023-02-28T13:42:52;8.90;67.00
9965;DHT22;5023;53.554;9.964;2023-02-28T13:48:00;9.10;67.20
9965;DHT22;5023;53.554;9.964;2023-02-28T13:58:53;8.80;67.20
9965;DHT22;5023;53.554;9.964;2023-02-28T14:09:28;8.70;66.60
9965;DHT22;5023;53.554;9.964;2023-02-28T14:14:56;8.50;65.30
9965;DHT22;5023;53.554;9.964;2023-02-28T14:19:59;8.50;66.00
9965;DHT22;5023;53.554;9.964;2023-02-28T14:25:09;8.40;65.90
9965;DHT22;5023;53.554;9.964;2023-02-28T14:30:42;8.40;65.20
9965;DHT22;5023;53.554;9.964;2023-02-28T14:36:01;8.30;65.50
9965;DHT22;5023;53.554;9.964;2023-02-28T14:41:12;8.50;72.60
9965;DHT22;5023;53.554;9.964;2023-02-28T14:46:21;8.70;74.30
9965;DHT22;5023;53.554;9.964;2023-02-28T14:51:24;8.80;71.00
9965;DHT22;5023;53.554;9.964;2023-02-28T14:56:30;8.30;66.00
9965;DHT22;5023;53.554;9.964;2023-02-28T15:01:36;8.10;66.70
9965;DHT22;5023;53.554;9.964;2023-02-28T15:06:38;8.30;70.90
9965;DHT22;5023;53.554;9.964;2023-02-28T15:11:46;8.10;67.50
9965;DHT22;5023;53.554;9.964;2023-02-28T15:16:56;8.00;69.30
9965;DHT22;5023;53.554;9.964;2023-02-28T15:22:01;7.90;67.50
9965;DHT22;5023;53.554;9.964;2023-02-28T15:27:06;7.90;70.80
9965;DHT22;5023;53.554;9.964;2023-02-28T15:32:24;8.30;71.80
9965;DHT22;5023;53.554;9.964;2023-02-28T15:37:30;8.40;71.10
9965;DHT22;5023;53.554;9.964;2023-02-28T15:42:35;8.60;76.10
9965;DHT22;5023;53.554;9.964;2023-02-28T15:47:38;8.70;74.50
9965;DHT22;5023;53.554;9.964;2023-02-28T15:52:44;8.50;68.00
9965;DHT22;5023;53.554;9.964;2023-02-28T15:57:49;8.20;66.90
9965;DHT22;5023;53.554;9.964;2023-02-28T16:02:54;8.00;66.70
9965;DHT22;5023;53.554;9.964;2023-02-28T16:07:57;7.90;70.60
9965;DHT22;5023;53.554;9.964;2023-02-28T16:13:02;8.10;70.50
9965;DHT22;5023;53.554;9.964;2023-02-28T16:18:08;7.90;67.90
9965;DHT22;5023;53.554;9.964;2023-02-28T16:23:12;7.70;68.70
9965;DHT22;5023;53.554;9.964;2023-02-28T16:28:19;7.60;73.30
9965;DHT22;5023;53.554;9.964;2023-02-28T16:33:24;7.90;74.90
9965;DHT22;5023;53.554;9.964;2023-02-28T16:38:27;7.90;70.40
9965;DHT22;5023;53.554;9.964;2023-02-28T16:43:29;7.60;69.60
9965;DHT22;5023;53.554;9.964;2023-02-28T16:48:34;7.40;69.70
9965;DHT22;5023;53.554;9.964;2023-02-28T16:53:36;7.30;70.10
9965;DHT22;5023;53.554;9.964;2023-02-28T16:58:38;7.20;70.70
9965;DHT22;5023;53.554;9.964;2023-02-28T17:03:43;7.00;72.00
9965;DHT22;5023;53.554;9.964;2023-02-28T17:08:45;6.90;72.90
9965;DHT22;5023;53.554;9.964;2023-02-28T17:13:47;6.80;73.70
9965;DHT22;5023;53.554;9.964;2023-02-28T17:18:51;6.70;74.30
9965;DHT22;5023;53.554;9.964;2023-02-28T17:23:54;6.70;75.00
9965;DHT22;5023;53.554;9.964;2023-02-28T17:28:57;6.60;75.60
9965;DHT22;5023;53.554;9.964;2023-02-28T17:34:01;6.60;75.90
9965;DHT22;5023;53.554;9.964;2023-02-28T17:39:04;6.60;76.30
9965;DHT22;5023;53.554;9.964;2023-02-28T17:44:10;6.50;76.80
9965;DHT22;5023;53.554;9.964;2023-02-28T17:49:15;6.40;78.20
9965;DHT22;5023;53.554;9.964;2023-02-28T17:54:17;6.40;79.30
9965;DHT22;5023;53.554;9.964;2023-02-28T17:59:19;6.30;80.70
9965;DHT22;5023;53.554;9.964;2023-02-28T18:04:22;6.30;81.80
9965;DHT22;5023;53.554;9.964;2023-02-28T18:09:27;6.40;92.20
9965;DHT22;5023;53.554;9.964;2023-02-28T18:14:29;6.40;90.30
9965;DHT22;5023;53.554;9.964;2023-02-28T18:19:32;6.20;90.40
9965;DHT22;5023;53.554;9.964;2023-02-28T18:24:34;6.20;91.10
9965;DHT22;5023;53.554;9.964;2023-02-28T18:29:39;6.10;91.20
9965;DHT22;5023;53.554;9.964;2023-02-28T18:34:43;6.10;92.50
9965;DHT22;5023;53.554;9.964;2023-02-28T18:39:45;6.00;92.60
9965;DHT22;5023;53.554;9.964;2023-02-28T18:44:47;5.90;92.60
9965;DHT22;5023;53.554;9.964;2023-02-28T18:49:50;5.80;93.90
9965;DHT22;5023;53.554;9.964;2023-02-28T18:54:52;5.60;95.20
9965;DHT22;5023;53.554;9.964;2023-02-28T18:59:54;5.50;97.10
9965;DHT22;5023;53.554;9.964;2023-02-28T19:04:58;5.40;99.40
9965;DHT22;5023;53.554;9.964;2023-02-28T19:10:00;5.30;99.90
9965;DHT22;5023;53.554;9.964;2023-02-28T19:15:06;5.30;99.90
9965;DHT22;5023;53.554;9.964;2023-02-28T19:20:11;5.30;99.90
9965;DHT22;5023;53.554;9.964;2023-02-28T19:25:16;5.30;99.90
9965;DHT22;5023;53.554;9.964;2023-02-28T19:30:18;5.30;99.90
9965;DHT22;5023;53.554;9.964;2023-02-28T19:35:22;5.20;99.90
9965;DHT22;5023;53.554;9.964;2023-02-28T19:40:24;5.10;99.90
9965;DHT22;5023;53.554;9.964;2023-02-28T19:45:26;5.00;99.90
9965;DHT22;5023;53.554;9.964;2023-02-28T19:50:30;4.90;99.90
9965;DHT22;5023;53.554;9.964;2023-02-28T19:55:32;4.90;99.90
9965;DHT22;5023;53.554;9.964;2023-02-28T20:00:34;4.80;99.90
9965;DHT22;5023;53.554;9.964;2023-02-28T20:05:38;4.80;99.90
9965;DHT22;5023;53.554;9.964;2023-02-28T20:10:40;4.70;99.90
9965;DHT22;5023;53.554;9.964;2023-02-28T20:15:42;4.70;99.90
9965;DHT22;5023;53.554;9.964;2023-02-28T20:20:45;4.70;99.90
9965;DHT22;5023;53.554;9.964;2023-02-28T20:25:47;4.60;99.90
9965;DHT22;5023;53.554;9.964;2023-02-28T20:30:51;4.60;99.90
9965;DHT22;5023;53.554;9.964;2023-02-28T20:35:59;4.70;99.90
9965;DHT22;5023;53.554;9.964;2023-02-28T20:41:02;4.60;99.90
9965;DHT22;5023;53.554;9.964;2023-02-28T20:46:04;4.50;99.90
9965;DHT22;5023;53.554;9.964;2023-02-28T20:51:07;4.50;99.90
9965;DHT22;5023;53.554;9.964;2023-02-28T20:56:11;4.40;99.90
9965;DHT22;5023;53.554;9.964;2023-02-28T21:01:17;4.40;99.90
9965;DHT22;5023;53.554;9.964;2023-02-28T21:06:22;4.20;99.90
9965;DHT22;5023;53.554;9.964;2023-02-28T21:11:26;4.30;99.90
9965;DHT22;5023;53.554;9.964;2023-02-28T21:16:30;4.20;99.90
9965;DHT22;5023;53.554;9.964;2023-02-28T21:21:37;4.20;99.90
9965;DHT22;5023;53.554;9.964;2023-02-28T21:26:40;4.10;99.90
9965;DHT22;5023;53.554;9.964;2023-02-28T21:31:42;4.10;99.90
9965;DHT22;5023;53.554;9.964;2023-02-28T21:36:46;4.00;99.90
9965;DHT22;5023;53.554;9.964;2023-02-28T21:41:48;4.00;99.90
9965;DHT22;5023;53.554;9.964;2023-02-28T21:46:51;3.90;99.90
9965;DHT22;5023;53.554;9.964;2023-02-28T21:51:57;3.90;99.90
9965;DHT22;5023;53.554;9.964;2023-02-28T21:57:00;3.90;99.90
9965;DHT22;5023;53.554;9.964;2023-02-28T22:02:02;3.90;99.90
9965;DHT22;5023;53.554;9.964;2023-02-28T22:07:06;3.90;99.90
9965;DHT22;5023;53.554;9.964;2023-02-28T22:12:08;3.80;99.90
9965;DHT22;5023;53.554;9.964;2023-02-28T22:17:10;3.80;99.90
9965;DHT22;5023;53.554;9.964;2023-02-28T22:22:14;3.80;99.90
9965;DHT22;5023;53.554;9.964;2023-02-28T22:27:16;3.70;99.90
9965;DHT22;5023;53.554;9.964;2023-02-28T22:32:18;3.70;99.90
9965;DHT22;5023;53.554;9.964;2023-02-28T22:37:21;3.70;99.90
9965;DHT22;5023;53.554;9.964;2023-02-28T22:42:24;3.70;99.90
9965;DHT22;5023;53.554;9.964;2023-02-28T22:47:26;3.60;99.90
9965;DHT22;5023;53.554;9.964;2023-02-28T22:52:32;3.60;99.90
9965;DHT22;5023;53.554;9.964;2023-02-28T22:57:34;3.60;99.90
9965;DHT22;5023;53.554;9.964;2023-02-28T23:02:37;3.80;99.90
9965;DHT22;5023;53.554;9.964;2023-02-28T23:07:41;3.60;99.90
9965;DHT22;5023;53.554;9.964;2023-02-28T23:12:43;3.50;99.90
9965;DHT22;5023;53.554;9.964;2023-02-28T23:17:51;3.50;99.90
9965;DHT22;5023;53.554;9.964;2023-02-28T23:22:55;3.50;99.90
9965;DHT22;5023;53.554;9.964;2023-02-28T23:27:57;3.40;99.90
9965;DHT22;5023;53.554;9.964;2023-02-28T23:32:59;3.40;99.90
9965;DHT22;5023;53.554;9.964;2023-02-28T23:38:05;3.30;99.90
9965;DHT22;5023;53.554;9.964;2023-02-28T23:43:07;3.20;99.90
9965;DHT22;5023;53.554;9.964;2023-02-28T23:48:09;3.30;99.90
9965;DHT22;5023;53.554;9.964;2023-02-28T23:53:13;3.40;99.90
9965;DHT22;5023;53.554;9.964;2023-02-28T23:58:15;3.20;99.90
